createdAt,value
2022-08-24T00:00:04.272Z,958.1900
2022-08-24T00:00:15.315Z,958.1700
2022-08-24T00:00:26.438Z,958.1700
2022-08-24T00:00:37.968Z,958.1500
2022-08-24T00:00:49.165Z,958.1900
2022-08-24T00:01:00.230Z,958.1700
2022-08-24T00:01:11.350Z,958.1900
2022-08-24T00:01:22.536Z,958.1700
2022-08-24T00:01:33.589Z,958.1700
2022-08-24T00:01:44.868Z,958.1700
2022-08-24T00:01:56.253Z,958.1700
2022-08-24T00:02:07.615Z,958.1700
2022-08-24T00:02:23.152Z,958.1700
2022-08-24T00:02:34.588Z,958.1900
2022-08-24T00:02:45.768Z,958.1900
2022-08-24T00:02:56.960Z,958.1700
2022-08-24T00:03:08.217Z,958.1900
2022-08-24T00:03:19.516Z,958.1900
2022-08-24T00:03:34.857Z,958.1900
2022-08-24T00:03:46.144Z,958.2100
2022-08-24T00:03:57.351Z,958.2100
2022-08-24T00:04:08.454Z,958.2100
2022-08-24T00:04:23.431Z,958.1900
2022-08-24T00:04:35.272Z,958.2100
2022-08-24T00:04:46.762Z,958.2100
2022-08-24T00:05:00.542Z,958.2100
2022-08-24T00:05:14.742Z,958.2100
2022-08-24T00:05:26.143Z,958.2100
2022-08-24T00:05:37.312Z,958.2100
2022-08-24T00:05:48.483Z,958.2100
2022-08-24T00:05:59.540Z,958.2300
2022-08-24T00:06:10.710Z,958.2100
2022-08-24T00:06:21.767Z,958.2100
2022-08-24T00:06:32.961Z,958.2300
2022-08-24T00:06:44.036Z,958.2100
2022-08-24T00:06:55.090Z,958.2300
2022-08-24T00:07:06.217Z,958.2500
2022-08-24T00:07:27.530Z,958.1900
2022-08-24T00:07:40.199Z,958.1900
2022-08-24T00:07:51.343Z,958.1900
2022-08-24T00:08:02.660Z,958.1900
2022-08-24T00:08:13.833Z,958.2100
2022-08-24T00:08:24.997Z,958.1900
2022-08-24T00:08:36.051Z,958.1900
2022-08-24T00:08:47.125Z,958.2300
2022-08-24T00:08:58.179Z,958.2300
2022-08-24T00:09:09.507Z,958.2100
2022-08-24T00:09:20.705Z,958.2300
2022-08-24T00:09:31.753Z,958.2300
2022-08-24T00:09:42.793Z,958.2300
2022-08-24T00:09:59.753Z,958.1900
2022-08-24T00:10:10.958Z,958.2100
2022-08-24T00:10:22.099Z,958.2100
2022-08-24T00:10:33.139Z,958.1900
2022-08-24T00:10:44.357Z,958.1900
2022-08-24T00:10:55.513Z,958.1900
2022-08-24T00:11:06.560Z,958.1900
2022-08-24T00:11:17.710Z,958.1900
2022-08-24T00:11:28.777Z,958.1900
2022-08-24T00:11:39.911Z,958.1900
2022-08-24T00:11:50.975Z,958.1900
2022-08-24T00:12:02.049Z,958.1900
2022-08-24T00:12:13.253Z,958.1700
2022-08-24T00:12:26.169Z,958.1900
2022-08-24T00:12:37.288Z,958.1900
2022-08-24T00:12:48.418Z,958.1900
2022-08-24T00:12:59.459Z,958.1700
2022-08-24T00:13:10.566Z,958.2100
2022-08-24T00:13:21.605Z,958.2100
2022-08-24T00:13:32.653Z,958.1900
2022-08-24T00:13:48.384Z,958.2100
2022-08-24T00:13:59.425Z,958.2100
2022-08-24T00:14:10.708Z,958.2100
2022-08-24T00:14:21.791Z,958.1900
2022-08-24T00:14:32.857Z,958.2300
2022-08-24T00:14:43.921Z,958.2300
2022-08-24T00:14:55.216Z,958.2300
2022-08-24T00:15:06.251Z,958.2300
2022-08-24T00:15:17.381Z,958.2100
2022-08-24T00:15:28.458Z,958.2100
2022-08-24T00:15:39.673Z,958.2100
2022-08-24T00:15:50.762Z,958.2300
2022-08-24T00:16:01.956Z,958.2100
2022-08-24T00:16:13.116Z,958.2300
2022-08-24T00:16:24.188Z,958.2300
2022-08-24T00:16:35.292Z,958.2300
2022-08-24T00:16:46.546Z,958.2300
2022-08-24T00:16:57.911Z,958.2300
2022-08-24T00:17:09.007Z,958.2100
2022-08-24T00:17:20.057Z,958.2100
2022-08-24T00:17:31.128Z,958.1900
2022-08-24T00:17:42.244Z,958.2100
2022-08-24T00:17:53.457Z,958.1900
2022-08-24T00:18:04.725Z,958.2100
2022-08-24T00:18:15.980Z,958.2100
2022-08-24T00:18:27.032Z,958.2100
2022-08-24T00:18:38.094Z,958.2300
2022-08-24T00:18:49.237Z,958.2100
2022-08-24T00:19:00.290Z,958.2300
2022-08-24T00:19:11.505Z,958.2100
2022-08-24T00:19:22.561Z,958.2300
2022-08-24T00:19:33.684Z,958.2100
2022-08-24T00:19:44.867Z,958.2100
2022-08-24T00:19:56.067Z,958.2100
2022-08-24T00:20:07.286Z,958.2100
2022-08-24T00:20:18.661Z,958.2100
2022-08-24T00:20:29.724Z,958.2100
2022-08-24T00:20:44.642Z,958.2100
2022-08-24T00:20:56.329Z,958.1900
2022-08-24T00:21:07.569Z,958.1700
2022-08-24T00:21:18.626Z,958.1900
2022-08-24T00:21:29.682Z,958.1900
2022-08-24T00:21:40.745Z,958.1700
2022-08-24T00:21:51.919Z,958.1700
2022-08-24T00:22:03.085Z,958.1900
2022-08-24T00:22:14.150Z,958.1900
2022-08-24T00:22:25.218Z,958.1900
2022-08-24T00:22:36.261Z,958.1700
2022-08-24T00:22:47.333Z,958.1700
2022-08-24T00:22:59.090Z,958.1900
2022-08-24T00:23:10.328Z,958.2100
2022-08-24T00:23:21.389Z,958.1900
2022-08-24T00:23:32.622Z,958.1900
2022-08-24T00:23:43.669Z,958.1700
2022-08-24T00:23:54.860Z,958.1700
2022-08-24T00:24:05.893Z,958.1500
2022-08-24T00:24:16.959Z,958.1700
2022-08-24T00:24:28.099Z,958.1700
2022-08-24T00:24:39.143Z,958.1700
2022-08-24T00:24:50.211Z,958.1900
2022-08-24T00:25:01.289Z,958.1900
2022-08-24T00:25:12.330Z,958.1900
2022-08-24T00:25:23.482Z,958.1900
2022-08-24T00:25:34.527Z,958.1900
2022-08-24T00:25:45.575Z,958.1900
2022-08-24T00:25:56.710Z,958.1900
2022-08-24T00:26:07.802Z,958.1700
2022-08-24T00:26:19.309Z,958.1700
2022-08-24T00:26:35.848Z,958.1700
2022-08-24T00:26:46.893Z,958.1900
2022-08-24T00:26:57.971Z,958.1700
2022-08-24T00:27:09.021Z,958.1900
2022-08-24T00:27:20.243Z,958.1900
2022-08-24T00:27:31.431Z,958.1900
2022-08-24T00:27:42.641Z,958.1900
2022-08-24T00:27:53.843Z,958.1900
2022-08-24T00:28:05.173Z,958.1700
2022-08-24T00:28:16.401Z,958.1900
2022-08-24T00:28:27.460Z,958.1500
2022-08-24T00:28:38.518Z,958.1500
2022-08-24T00:28:49.585Z,958.1500
2022-08-24T00:29:03.172Z,958.1500
2022-08-24T00:29:17.691Z,958.1700
2022-08-24T00:29:28.936Z,958.1700
2022-08-24T00:29:40.123Z,958.1500
2022-08-24T00:29:51.337Z,958.1900
2022-08-24T00:30:02.380Z,958.1700
2022-08-24T00:30:13.433Z,958.1700
2022-08-24T00:30:24.608Z,958.1900
2022-08-24T00:30:35.823Z,958.1900
2022-08-24T00:30:46.962Z,958.1700
2022-08-24T00:30:58.013Z,958.1700
2022-08-24T00:31:09.083Z,958.1700
2022-08-24T00:31:20.414Z,958.1500
2022-08-24T00:31:31.454Z,958.1700
2022-08-24T00:31:42.604Z,958.1900
2022-08-24T00:31:53.777Z,958.1500
2022-08-24T00:32:04.957Z,958.1700
2022-08-24T00:32:16.097Z,958.1500
2022-08-24T00:32:29.268Z,958.1500
2022-08-24T00:32:40.441Z,958.1700
2022-08-24T00:32:52.006Z,958.1900
2022-08-24T00:33:03.059Z,958.1700
2022-08-24T00:33:14.300Z,958.1700
2022-08-24T00:33:25.480Z,958.1700
2022-08-24T00:33:36.688Z,958.1700
2022-08-24T00:33:47.888Z,958.1700
2022-08-24T00:33:59.088Z,958.1700
2022-08-24T00:34:10.152Z,958.1500
2022-08-24T00:34:21.362Z,958.1700
2022-08-24T00:34:32.403Z,958.1500
2022-08-24T00:34:45.896Z,958.1700
2022-08-24T00:35:00.409Z,958.1500
2022-08-24T00:35:11.833Z,958.1500
2022-08-24T00:35:22.961Z,958.1700
2022-08-24T00:35:34.022Z,958.1500
2022-08-24T00:35:45.166Z,958.1500
2022-08-24T00:35:56.411Z,958.1500
2022-08-24T00:36:07.470Z,958.1500
2022-08-24T00:36:18.630Z,958.1500
2022-08-24T00:36:29.715Z,958.1300
2022-08-24T00:36:40.771Z,958.1500
2022-08-24T00:36:51.835Z,958.1700
2022-08-24T00:37:02.892Z,958.1700
2022-08-24T00:37:14.159Z,958.1500
2022-08-24T00:37:25.229Z,958.1500
2022-08-24T00:37:36.324Z,958.1700
2022-08-24T00:37:47.379Z,958.1700
2022-08-24T00:37:58.423Z,958.1500
2022-08-24T00:38:09.618Z,958.1500
2022-08-24T00:38:20.650Z,958.1700
2022-08-24T00:38:31.701Z,958.1700
2022-08-24T00:38:42.810Z,958.1700
2022-08-24T00:38:54.025Z,958.1700
2022-08-24T00:39:05.245Z,958.1700
2022-08-24T00:39:16.288Z,958.1700
2022-08-24T00:39:27.356Z,958.1500
2022-08-24T00:39:38.421Z,958.1500
2022-08-24T00:39:50.226Z,958.1500
2022-08-24T00:40:01.312Z,958.1700
2022-08-24T00:40:12.605Z,958.1900
2022-08-24T00:40:23.748Z,958.1700
2022-08-24T00:40:34.867Z,958.1700
2022-08-24T00:40:45.937Z,958.1700
2022-08-24T00:40:56.998Z,958.1500
2022-08-24T00:41:08.048Z,958.1700
2022-08-24T00:41:19.118Z,958.1700
2022-08-24T00:41:30.282Z,958.1500
2022-08-24T00:41:41.486Z,958.1500
2022-08-24T00:41:52.755Z,958.1700
2022-08-24T00:42:03.952Z,958.1700
2022-08-24T00:42:15.088Z,958.1500
2022-08-24T00:42:26.282Z,958.1500
2022-08-24T00:42:37.346Z,958.1700
2022-08-24T00:42:48.417Z,958.1700
2022-08-24T00:42:59.563Z,958.1900
2022-08-24T00:43:10.765Z,958.1700
2022-08-24T00:43:21.898Z,958.1500
2022-08-24T00:43:32.941Z,958.1700
2022-08-24T00:43:44.155Z,958.1500
2022-08-24T00:43:55.198Z,958.1500
2022-08-24T00:44:06.393Z,958.1700
2022-08-24T00:44:17.509Z,958.1700
2022-08-24T00:44:28.732Z,958.1500
2022-08-24T00:44:39.798Z,958.1500
2022-08-24T00:44:50.944Z,958.1500
2022-08-24T00:45:02.089Z,958.1500
2022-08-24T00:45:13.157Z,958.1900
2022-08-24T00:45:24.538Z,958.1500
2022-08-24T00:45:35.742Z,958.1700
2022-08-24T00:45:46.921Z,958.1700
2022-08-24T00:45:58.127Z,958.1700
2022-08-24T00:46:09.353Z,958.1500
2022-08-24T00:46:20.650Z,958.1700
2022-08-24T00:46:31.833Z,958.1700
2022-08-24T00:46:44.344Z,958.1500
2022-08-24T00:46:55.495Z,958.1700
2022-08-24T00:47:06.698Z,958.1500
2022-08-24T00:47:17.918Z,958.1700
2022-08-24T00:47:29.036Z,958.1700
2022-08-24T00:47:40.238Z,958.1700
2022-08-24T00:47:51.444Z,958.1700
2022-08-24T00:48:02.855Z,958.1500
2022-08-24T00:48:14.176Z,958.1700
2022-08-24T00:48:25.315Z,958.1700
2022-08-24T00:48:36.374Z,958.1700
2022-08-24T00:48:47.470Z,958.1700
2022-08-24T00:48:58.567Z,958.1700
2022-08-24T00:49:09.627Z,958.1700
2022-08-24T00:49:20.692Z,958.1700
2022-08-24T00:49:31.754Z,958.1700
2022-08-24T00:49:42.907Z,958.1700
2022-08-24T00:49:54.177Z,958.1700
2022-08-24T00:50:05.249Z,958.1700
2022-08-24T00:50:17.383Z,958.1900
2022-08-24T00:50:28.433Z,958.1900
2022-08-24T00:50:39.493Z,958.1900
2022-08-24T00:50:50.633Z,958.1900
2022-08-24T00:51:01.803Z,958.1700
2022-08-24T00:51:13.046Z,958.1500
2022-08-24T00:51:24.265Z,958.1500
2022-08-24T00:51:35.434Z,958.1500
2022-08-24T00:51:48.928Z,958.1700
2022-08-24T00:52:00.699Z,958.1500
2022-08-24T00:52:14.848Z,958.1700
2022-08-24T00:52:25.959Z,958.1700
2022-08-24T00:52:37.016Z,958.1700
2022-08-24T00:52:48.064Z,958.1500
2022-08-24T00:52:59.159Z,958.1700
2022-08-24T00:53:10.206Z,958.1700
2022-08-24T00:53:21.263Z,958.1500
2022-08-24T00:53:32.314Z,958.1500
2022-08-24T00:53:43.399Z,958.1900
2022-08-24T00:53:54.527Z,958.1700
2022-08-24T00:54:05.719Z,958.1700
2022-08-24T00:54:16.926Z,958.1700
2022-08-24T00:54:28.126Z,958.1700
2022-08-24T00:54:45.915Z,958.1700
2022-08-24T00:54:56.287Z,958.1500
2022-08-24T00:55:07.365Z,958.1700
2022-08-24T00:55:18.497Z,958.1900
2022-08-24T00:55:29.552Z,958.1900
2022-08-24T00:55:40.617Z,958.1700
2022-08-24T00:55:51.898Z,958.1700
2022-08-24T00:56:03.003Z,958.1900
2022-08-24T00:56:14.187Z,958.1900
2022-08-24T00:56:25.434Z,958.1700
2022-08-24T00:56:36.568Z,958.1700
2022-08-24T00:56:47.697Z,958.1700
2022-08-24T00:56:58.767Z,958.1700
2022-08-24T00:57:09.804Z,958.1700
2022-08-24T00:57:20.950Z,958.1700
2022-08-24T00:57:32.000Z,958.1700
2022-08-24T00:57:43.054Z,958.1500
2022-08-24T00:57:54.185Z,958.1700
2022-08-24T00:58:05.477Z,958.1700
2022-08-24T00:58:17.809Z,958.1500
2022-08-24T00:58:31.877Z,958.1500
2022-08-24T00:58:43.057Z,958.1500
2022-08-24T00:58:57.134Z,958.1500
2022-08-24T00:59:08.388Z,958.1500
2022-08-24T00:59:19.528Z,958.1500
2022-08-24T00:59:30.760Z,958.1500
2022-08-24T00:59:43.919Z,958.1300
2022-08-24T00:59:55.116Z,958.1300
2022-08-24T01:00:06.327Z,958.1300
2022-08-24T01:00:17.390Z,958.1100
2022-08-24T01:00:28.464Z,958.1300
2022-08-24T01:00:39.542Z,958.1300
2022-08-24T01:00:50.660Z,958.1300
2022-08-24T01:01:01.800Z,958.1500
2022-08-24T01:01:12.935Z,958.1500
2022-08-24T01:01:24.004Z,958.1100
2022-08-24T01:01:35.193Z,958.1300
2022-08-24T01:01:47.481Z,958.1300
2022-08-24T01:01:59.192Z,958.1300
2022-08-24T01:02:16.204Z,958.1300
2022-08-24T01:02:27.575Z,958.1100
2022-08-24T01:02:38.723Z,958.1100
2022-08-24T01:02:49.897Z,958.1100
2022-08-24T01:03:00.943Z,958.1100
2022-08-24T01:03:12.119Z,958.1100
2022-08-24T01:03:23.340Z,958.1100
2022-08-24T01:03:34.516Z,958.1100
2022-08-24T01:03:45.741Z,958.1500
2022-08-24T01:03:57.280Z,958.1500
2022-08-24T01:04:08.387Z,958.1100
2022-08-24T01:04:19.586Z,958.1100
2022-08-24T01:04:30.653Z,958.1100
2022-08-24T01:04:41.804Z,958.0900
2022-08-24T01:04:52.866Z,958.1500
2022-08-24T01:05:04.066Z,958.1300
2022-08-24T01:05:15.114Z,958.1500
2022-08-24T01:05:26.156Z,958.1500
2022-08-24T01:05:37.346Z,958.1500
2022-08-24T01:05:48.484Z,958.1500
2022-08-24T01:05:59.546Z,958.1300
2022-08-24T01:06:10.671Z,958.1300
2022-08-24T01:06:21.715Z,958.1300
2022-08-24T01:06:32.783Z,958.1300
2022-08-24T01:06:43.874Z,958.1300
2022-08-24T01:06:55.002Z,958.1100
2022-08-24T01:07:06.069Z,958.1100
2022-08-24T01:07:17.211Z,958.1300
2022-08-24T01:07:28.285Z,958.1300
2022-08-24T01:07:39.331Z,958.1300
2022-08-24T01:07:50.399Z,958.1300
2022-08-24T01:08:01.662Z,958.1300
2022-08-24T01:08:12.744Z,958.1300
2022-08-24T01:08:23.902Z,958.0900
2022-08-24T01:08:35.117Z,958.1100
2022-08-24T01:08:46.291Z,958.1100
2022-08-24T01:09:03.261Z,958.0900
2022-08-24T01:09:14.474Z,958.0700
2022-08-24T01:09:28.266Z,958.0900
2022-08-24T01:09:40.070Z,958.0700
2022-08-24T01:09:51.270Z,958.1100
2022-08-24T01:10:02.335Z,958.0700
2022-08-24T01:10:13.389Z,958.0700
2022-08-24T01:10:24.448Z,958.0700
2022-08-24T01:10:35.530Z,958.0900
2022-08-24T01:10:46.599Z,958.0700
2022-08-24T01:10:57.644Z,958.0700
2022-08-24T01:11:08.768Z,958.0700
2022-08-24T01:11:19.893Z,958.0700
2022-08-24T01:11:33.983Z,958.0500
2022-08-24T01:11:45.257Z,958.0700
2022-08-24T01:11:56.288Z,958.0700
2022-08-24T01:12:07.334Z,958.0700
2022-08-24T01:12:18.384Z,958.0700
2022-08-24T01:12:29.591Z,958.0700
2022-08-24T01:12:40.670Z,958.0700
2022-08-24T01:12:59.792Z,958.0700
2022-08-24T01:13:08.967Z,958.0700
2022-08-24T01:13:20.037Z,958.0700
2022-08-24T01:13:31.130Z,958.0700
2022-08-24T01:13:42.162Z,958.0500
2022-08-24T01:13:53.298Z,958.0500
2022-08-24T01:14:04.364Z,958.0500
2022-08-24T01:14:15.548Z,958.0500
2022-08-24T01:14:26.689Z,958.0700
2022-08-24T01:14:37.951Z,958.0700
2022-08-24T01:14:49.161Z,958.0700
2022-08-24T01:15:00.300Z,958.0700
2022-08-24T01:15:11.508Z,958.0700
2022-08-24T01:15:22.696Z,958.0500
2022-08-24T01:15:33.897Z,958.0500
2022-08-24T01:15:45.100Z,958.0500
2022-08-24T01:15:56.333Z,958.0500
2022-08-24T01:16:07.415Z,958.0500
2022-08-24T01:16:18.509Z,958.0500
2022-08-24T01:16:29.637Z,958.0500
2022-08-24T01:16:40.858Z,958.0500
2022-08-24T01:16:51.972Z,958.0300
2022-08-24T01:17:03.015Z,958.0300
2022-08-24T01:17:14.074Z,958.0500
2022-08-24T01:17:25.133Z,958.0500
2022-08-24T01:17:39.066Z,958.0500
2022-08-24T01:17:51.651Z,958.0500
2022-08-24T01:18:02.901Z,958.0500
2022-08-24T01:18:14.230Z,958.0300
2022-08-24T01:18:25.294Z,958.0300
2022-08-24T01:18:37.388Z,958.0100
2022-08-24T01:18:48.448Z,958.0300
2022-08-24T01:19:00.608Z,958.0100
2022-08-24T01:19:11.675Z,958.0100
2022-08-24T01:19:22.719Z,958.0500
2022-08-24T01:19:33.905Z,958.0500
2022-08-24T01:19:45.106Z,958.0500
2022-08-24T01:19:56.327Z,957.9900
2022-08-24T01:20:07.399Z,958.0100
2022-08-24T01:20:18.466Z,958.0100
2022-08-24T01:20:29.682Z,958.0100
2022-08-24T01:20:40.744Z,958.0100
2022-08-24T01:20:51.918Z,958.0100
2022-08-24T01:21:02.972Z,958.0100
2022-08-24T01:21:14.047Z,958.0100
2022-08-24T01:21:25.140Z,957.9900
2022-08-24T01:21:36.409Z,957.9900
2022-08-24T01:21:47.464Z,957.9900
2022-08-24T01:21:58.569Z,958.0100
2022-08-24T01:22:09.620Z,958.0100
2022-08-24T01:22:20.700Z,958.0100
2022-08-24T01:22:31.811Z,957.9900
2022-08-24T01:22:43.004Z,957.9900
2022-08-24T01:22:54.136Z,957.9900
2022-08-24T01:23:05.352Z,957.9700
2022-08-24T01:23:16.530Z,957.9900
2022-08-24T01:23:27.571Z,957.9700
2022-08-24T01:23:44.559Z,957.9900
2022-08-24T01:23:55.761Z,958.0100
2022-08-24T01:24:06.974Z,957.9900
2022-08-24T01:24:18.014Z,957.9900
2022-08-24T01:24:29.063Z,957.9900
2022-08-24T01:24:40.196Z,957.9900
2022-08-24T01:24:51.383Z,957.9900
2022-08-24T01:25:02.583Z,957.9700
2022-08-24T01:25:13.783Z,957.9900
2022-08-24T01:25:25.033Z,957.9700
2022-08-24T01:25:36.494Z,957.9700
2022-08-24T01:25:49.369Z,957.9700
2022-08-24T01:26:01.856Z,957.9900
2022-08-24T01:26:14.328Z,957.9900
2022-08-24T01:26:27.791Z,957.9700
2022-08-24T01:26:39.085Z,957.9700
2022-08-24T01:26:50.324Z,957.9900
2022-08-24T01:27:01.560Z,957.9900
2022-08-24T01:27:12.693Z,957.9700
2022-08-24T01:27:26.690Z,957.9900
2022-08-24T01:27:39.464Z,957.9900
2022-08-24T01:27:50.866Z,958.0100
2022-08-24T01:28:03.655Z,957.9900
2022-08-24T01:28:16.551Z,957.9700
2022-08-24T01:28:30.856Z,957.9700
2022-08-24T01:28:43.683Z,957.9700
2022-08-24T01:28:55.849Z,957.9900
2022-08-24T01:29:08.339Z,957.9900
2022-08-24T01:29:20.500Z,957.9900
2022-08-24T01:29:34.899Z,958.0100
2022-08-24T01:29:45.964Z,957.9900
2022-08-24T01:29:58.091Z,957.9700
2022-08-24T01:30:09.136Z,957.9700
2022-08-24T01:30:21.950Z,957.9500
2022-08-24T01:30:38.321Z,957.9700
2022-08-24T01:30:50.200Z,957.9700
2022-08-24T01:31:01.302Z,957.9700
2022-08-24T01:31:12.415Z,957.9700
2022-08-24T01:31:23.491Z,957.9500
2022-08-24T01:31:34.762Z,957.9300
2022-08-24T01:31:46.092Z,957.9500
2022-08-24T01:31:57.910Z,957.9300
2022-08-24T01:32:08.988Z,957.9700
2022-08-24T01:32:20.031Z,957.9700
2022-08-24T01:32:31.164Z,957.9700
2022-08-24T01:32:42.359Z,957.9500
2022-08-24T01:32:53.560Z,957.9500
2022-08-24T01:33:04.760Z,957.9500
2022-08-24T01:33:15.960Z,957.9500
2022-08-24T01:33:27.160Z,957.9500
2022-08-24T01:33:38.403Z,957.9500
2022-08-24T01:33:49.615Z,957.9500
2022-08-24T01:34:00.670Z,957.9500
2022-08-24T01:34:11.746Z,957.9300
2022-08-24T01:34:22.790Z,957.9300
2022-08-24T01:34:33.844Z,957.9300
2022-08-24T01:34:44.880Z,957.9500
2022-08-24T01:34:55.922Z,957.9500
2022-08-24T01:35:07.194Z,957.9300
2022-08-24T01:35:18.301Z,957.9500
2022-08-24T01:35:29.364Z,957.9300
2022-08-24T01:35:40.452Z,957.9500
2022-08-24T01:35:51.519Z,957.9500
2022-08-24T01:36:02.613Z,957.9300
2022-08-24T01:36:13.814Z,957.9500
2022-08-24T01:36:28.392Z,957.9500
2022-08-24T01:36:39.795Z,957.9500
2022-08-24T01:36:50.837Z,957.9300
2022-08-24T01:37:01.923Z,957.9500
2022-08-24T01:37:13.071Z,957.9700
2022-08-24T01:37:24.242Z,957.9500
2022-08-24T01:37:35.296Z,957.9500
2022-08-24T01:37:46.512Z,957.9500
2022-08-24T01:37:57.553Z,957.9700
2022-08-24T01:38:08.700Z,957.9500
2022-08-24T01:38:19.734Z,957.9500
2022-08-24T01:38:30.829Z,957.9700
2022-08-24T01:38:41.966Z,957.9500
2022-08-24T01:38:53.086Z,957.9500
2022-08-24T01:39:04.145Z,957.9300
2022-08-24T01:39:15.249Z,957.9300
2022-08-24T01:39:26.409Z,957.9300
2022-08-24T01:39:37.466Z,957.9500
2022-08-24T01:39:48.551Z,957.9500
2022-08-24T01:39:59.652Z,957.9300
2022-08-24T01:40:10.779Z,957.9500
2022-08-24T01:40:22.171Z,957.9500
2022-08-24T01:40:33.235Z,957.9500
2022-08-24T01:40:44.562Z,957.9500
2022-08-24T01:40:55.688Z,957.9700
2022-08-24T01:41:06.728Z,957.9700
2022-08-24T01:41:18.415Z,957.9700
2022-08-24T01:41:29.632Z,957.9900
2022-08-24T01:41:40.773Z,957.9500
2022-08-24T01:41:51.836Z,957.9500
2022-08-24T01:42:02.922Z,957.9500
2022-08-24T01:42:14.135Z,957.9700
2022-08-24T01:42:25.214Z,957.9500
2022-08-24T01:42:36.296Z,957.9700
2022-08-24T01:42:47.409Z,957.9700
2022-08-24T01:42:58.589Z,957.9500
2022-08-24T01:43:09.784Z,957.9700
2022-08-24T01:43:20.842Z,957.9900
2022-08-24T01:43:31.898Z,957.9700
2022-08-24T01:43:48.827Z,957.9500
2022-08-24T01:44:00.028Z,957.9700
2022-08-24T01:44:11.082Z,957.9700
2022-08-24T01:44:22.137Z,957.9700
2022-08-24T01:44:33.309Z,957.9900
2022-08-24T01:44:44.336Z,957.9700
2022-08-24T01:44:55.409Z,957.9700
2022-08-24T01:45:06.610Z,957.9700
2022-08-24T01:45:17.708Z,957.9700
2022-08-24T01:45:28.913Z,957.9700
2022-08-24T01:45:40.114Z,957.9900
2022-08-24T01:45:51.318Z,957.9500
2022-08-24T01:46:02.530Z,957.9900
2022-08-24T01:46:13.603Z,957.9700
2022-08-24T01:46:24.703Z,957.9900
2022-08-24T01:46:35.886Z,957.9700
2022-08-24T01:46:46.935Z,957.9900
2022-08-24T01:46:58.042Z,957.9900
2022-08-24T01:47:09.051Z,957.9900
2022-08-24T01:47:20.139Z,957.9900
2022-08-24T01:47:31.215Z,957.9900
2022-08-24T01:47:42.322Z,957.9900
2022-08-24T01:47:53.520Z,957.9700
2022-08-24T01:48:04.878Z,957.9700
2022-08-24T01:48:19.945Z,957.9900
2022-08-24T01:48:32.897Z,957.9700
2022-08-24T01:48:44.103Z,957.9700
2022-08-24T01:48:55.169Z,957.9900
2022-08-24T01:49:06.287Z,957.9900
2022-08-24T01:49:17.347Z,957.9700
2022-08-24T01:49:28.398Z,957.9700
2022-08-24T01:49:39.535Z,957.9700
2022-08-24T01:49:50.609Z,957.9500
2022-08-24T01:50:01.670Z,957.9700
2022-08-24T01:50:12.716Z,957.9700
2022-08-24T01:50:23.766Z,957.9500
2022-08-24T01:50:34.876Z,957.9700
2022-08-24T01:50:46.077Z,957.9500
2022-08-24T01:50:57.222Z,957.9700
2022-08-24T01:51:08.282Z,957.9500
2022-08-24T01:51:19.401Z,957.9500
2022-08-24T01:51:30.518Z,957.9700
2022-08-24T01:51:41.653Z,957.9500
2022-08-24T01:51:52.757Z,957.9500
2022-08-24T01:52:03.957Z,957.9500
2022-08-24T01:52:14.997Z,957.9500
2022-08-24T01:52:29.722Z,957.9700
2022-08-24T01:53:03.982Z,957.9700
2022-08-24T01:53:07.287Z,957.9700
2022-08-24T01:53:17.369Z,957.9700
2022-08-24T01:53:28.501Z,957.9500
2022-08-24T01:53:39.619Z,957.9500
2022-08-24T01:53:50.802Z,957.9500
2022-08-24T01:54:02.002Z,957.9300
2022-08-24T01:54:13.119Z,957.9700
2022-08-24T01:54:24.161Z,957.9500
2022-08-24T01:54:35.212Z,957.9500
2022-08-24T01:54:46.367Z,957.9500
2022-08-24T01:54:57.504Z,957.9500
2022-08-24T01:55:08.547Z,957.9700
2022-08-24T01:55:22.684Z,957.9500
2022-08-24T01:55:34.008Z,957.9500
2022-08-24T01:55:45.198Z,957.9700
2022-08-24T01:55:56.379Z,957.9500
2022-08-24T01:56:07.438Z,957.9500
2022-08-24T01:56:18.706Z,957.9300
2022-08-24T01:56:29.757Z,957.9500
2022-08-24T01:56:42.358Z,957.9500
2022-08-24T01:56:53.537Z,957.9500
2022-08-24T01:57:05.106Z,957.9500
2022-08-24T01:57:17.258Z,957.9300
2022-08-24T01:57:28.369Z,957.9500
2022-08-24T01:57:39.418Z,957.9500
2022-08-24T01:57:50.485Z,957.9500
2022-08-24T01:58:01.619Z,957.9500
2022-08-24T01:58:12.661Z,957.9300
2022-08-24T01:58:23.699Z,957.9500
2022-08-24T01:58:34.916Z,957.9500
2022-08-24T01:58:46.077Z,957.9500
2022-08-24T01:58:57.157Z,957.9500
2022-08-24T01:59:08.401Z,957.9700
2022-08-24T01:59:19.595Z,957.9500
2022-08-24T01:59:30.633Z,957.9500
2022-08-24T01:59:41.833Z,957.9700
2022-08-24T01:59:52.873Z,957.9500
2022-08-24T02:00:03.977Z,957.9700
2022-08-24T02:00:15.132Z,957.9700
2022-08-24T02:00:26.317Z,957.9700
2022-08-24T02:00:37.463Z,957.9700
2022-08-24T02:00:48.807Z,957.9700
2022-08-24T02:00:59.859Z,957.9500
2022-08-24T02:01:10.958Z,957.9500
2022-08-24T02:01:22.055Z,957.9500
2022-08-24T02:01:33.276Z,957.9700
2022-08-24T02:01:44.370Z,957.9500
2022-08-24T02:01:55.461Z,957.9500
2022-08-24T02:02:06.635Z,957.9500
2022-08-24T02:02:17.738Z,957.9300
2022-08-24T02:02:28.865Z,957.9500
2022-08-24T02:02:40.066Z,957.9700
2022-08-24T02:02:51.272Z,957.9500
2022-08-24T02:03:02.672Z,957.9500
2022-08-24T02:03:14.107Z,957.9500
2022-08-24T02:03:29.684Z,957.9500
2022-08-24T02:03:42.334Z,957.9100
2022-08-24T02:03:54.066Z,957.9300
2022-08-24T02:04:05.224Z,957.9300
2022-08-24T02:04:17.683Z,957.9300
2022-08-24T02:04:29.930Z,957.9300
2022-08-24T02:04:41.068Z,957.9100
2022-08-24T02:04:55.372Z,957.9300
2022-08-24T02:05:06.419Z,957.9100
2022-08-24T02:05:17.459Z,957.9500
2022-08-24T02:05:28.555Z,957.9300
2022-08-24T02:05:39.754Z,957.9300
2022-08-24T02:05:50.938Z,957.9500
2022-08-24T02:06:01.995Z,957.9500
2022-08-24T02:06:13.205Z,957.9300
2022-08-24T02:06:24.317Z,957.9300
2022-08-24T02:06:35.516Z,957.9300
2022-08-24T02:06:46.723Z,957.9500
2022-08-24T02:06:57.930Z,957.9500
2022-08-24T02:07:09.116Z,957.9500
2022-08-24T02:07:20.216Z,957.9700
2022-08-24T02:07:31.354Z,957.9300
2022-08-24T02:07:42.885Z,957.9300
2022-08-24T02:07:53.968Z,957.9500
2022-08-24T02:08:05.015Z,957.9500
2022-08-24T02:08:16.240Z,957.9500
2022-08-24T02:08:27.330Z,957.9300
2022-08-24T02:08:38.363Z,957.9300
2022-08-24T02:08:49.501Z,957.9500
2022-08-24T02:09:00.718Z,957.9300
2022-08-24T02:09:11.773Z,957.9300
2022-08-24T02:09:22.831Z,957.9300
2022-08-24T02:09:36.660Z,957.9500
2022-08-24T02:09:47.950Z,957.9500
2022-08-24T02:09:59.037Z,957.9500
2022-08-24T02:10:10.085Z,957.9500
2022-08-24T02:10:21.224Z,957.9700
2022-08-24T02:10:32.283Z,957.9700
2022-08-24T02:10:48.682Z,957.9900
2022-08-24T02:11:00.332Z,957.9700
2022-08-24T02:11:11.382Z,957.9700
2022-08-24T02:11:22.490Z,957.9700
2022-08-24T02:11:33.542Z,957.9700
2022-08-24T02:11:44.609Z,957.9900
2022-08-24T02:11:55.683Z,957.9700
2022-08-24T02:12:06.821Z,957.9700
2022-08-24T02:12:17.879Z,957.9700
2022-08-24T02:12:29.000Z,957.9700
2022-08-24T02:12:40.268Z,957.9900
2022-08-24T02:12:51.356Z,957.9700
2022-08-24T02:13:02.555Z,957.9700
2022-08-24T02:13:13.707Z,957.9900
2022-08-24T02:13:26.186Z,957.9700
2022-08-24T02:13:37.316Z,957.9900
2022-08-24T02:13:48.397Z,957.9700
2022-08-24T02:13:59.975Z,957.9900
2022-08-24T02:14:13.432Z,957.9700
2022-08-24T02:14:25.935Z,957.9500
2022-08-24T02:14:42.128Z,957.9700